Map

Track Data

SID SEASON NUMBER BASIN SUBBASIN NAME ISO_TIME NATURE LAT LON WMO_WIND WMO_PRES WMO_AGENCY TRACK_TYPE DIST2LAND LANDFALL IFLAG USA_AGENCY USA_ATCF_ID USA_LAT USA_LON USA_RECORD USA_STATUS USA_WIND USA_PRES USA_SSHS USA_R34_NE USA_R34_SE USA_R34_SW USA_R34_NW USA_R50_NE USA_R50_SE USA_R50_SW USA_R50_NW USA_R64_NE USA_R64_SE USA_R64_SW USA_R64_NW USA_POCI USA_ROCI USA_RMW USA_EYE TOKYO_LAT TOKYO_LON TOKYO_GRADE TOKYO_WIND TOKYO_PRES TOKYO_R50_DIR TOKYO_R50_LONG TOKYO_R50_SHORT TOKYO_R30_DIR TOKYO_R30_LONG TOKYO_R30_SHORT TOKYO_LAND CMA_LAT CMA_LON CMA_CAT CMA_WIND CMA_PRES HKO_LAT HKO_LON HKO_CAT HKO_WIND HKO_PRES NEWDELHI_LAT NEWDELHI_LON NEWDELHI_GRADE NEWDELHI_WIND NEWDELHI_PRES NEWDELHI_CI NEWDELHI_DP NEWDELHI_POCI REUNION_LAT REUNION_LON REUNION_TYPE REUNION_WIND REUNION_PRES REUNION_TNUM REUNION_CI REUNION_RMW REUNION_R34_NE REUNION_R34_SE REUNION_R34_SW REUNION_R34_NW REUNION_R50_NE REUNION_R50_SE REUNION_R50_SW REUNION_R50_NW REUNION_R64_NE REUNION_R64_SE REUNION_R64_SW REUNION_R64_NW BOM_LAT BOM_LON BOM_TYPE BOM_WIND BOM_PRES BOM_TNUM BOM_CI BOM_RMW BOM_R34_NE BOM_R34_SE BOM_R34_SW BOM_R34_NW BOM_R50_NE BOM_R50_SE BOM_R50_SW BOM_R50_NW BOM_R64_NE BOM_R64_SE BOM_R64_SW BOM_R64_NW BOM_ROCI BOM_POCI BOM_EYE BOM_POS_METHOD BOM_PRES_METHOD NADI_LAT NADI_LON NADI_CAT NADI_WIND NADI_PRES WELLINGTON_LAT WELLINGTON_LON WELLINGTON_WIND WELLINGTON_PRES DS824_LAT DS824_LON DS824_STAGE DS824_WIND DS824_PRES TD9636_LAT TD9636_LON TD9636_STAGE TD9636_WIND TD9636_PRES TD9635_LAT TD9635_LON TD9635_WIND TD9635_PRES TD9635_ROCI NEUMANN_LAT NEUMANN_LON NEUMANN_CLASS NEUMANN_WIND NEUMANN_PRES MLC_LAT MLC_LON MLC_CLASS MLC_WIND MLC_PRES USA_GUST BOM_GUST BOM_GUST_PER REUNION_GUST REUNION_GUST_PER USA_SEAHGT USA_SEARAD_NE USA_SEARAD_SE USA_SEARAD_SW USA_SEARAD_NW STORM_SPEED STORM_DIR
1921094S14151 1921 21 SP EA NOT_NAMED 1921-04-03 23:00:00 NR -14.0000 151.200 main 379 379 __________O___ -1 -14.0000 151.200 7 4 0
1921094S14151 1921 21 SP EA NOT_NAMED 1921-04-04 00:00:00 NR -14.0722 151.198 main 390 390 __________P___ -1 -14.0722 151.198 7 4 184
1921094S14151 1921 21 SP EA NOT_NAMED 1921-04-04 03:00:00 NR -14.2901 151.192 main 412 412 __________P___ -1 -14.2901 151.192 7 4 183
1921094S14151 1921 21 SP EA NOT_NAMED 1921-04-04 06:00:00 NR -14.5122 151.190 main 434 434 __________P___ -1 -14.5122 151.190 7 5 0
1921094S14151 1921 21 SP EA NOT_NAMED 1921-04-04 09:00:00 NR -14.7415 151.193 main 456 456 __________P___ -1 -14.7415 151.193 7 5 0
1921094S14151 1921 21 SP EA NOT_NAMED 1921-04-04 11:00:00 NR -14.9000 151.200 main 478 478 __________O___ -1 -14.9000 151.200 7 5 175
1921094S14151 1921 21 SP EA NOT_NAMED 1921-04-04 12:00:00 NR -14.9812 151.205 main 489 489 __________P___ -1 -14.9812 151.205 7 5 0
1921094S14151 1921 21 SP EA NOT_NAMED 1921-04-04 15:00:00 NR -15.2272 151.225 main 511 511 __________P___ -1 -15.2272 151.225 7 5 177
1921094S14151 1921 21 SP EA NOT_NAMED 1921-04-04 18:00:00 NR -15.4648 151.252 main 546 546 __________P___ -1 -15.4648 151.252 7 5 173
1921094S14151 1921 21 SP EA NOT_NAMED 1921-04-04 21:00:00 NR -15.6785 151.281 main 568 567 __________P___ -1 -15.6785 151.281 7 4 173
1921094S14151 1921 21 SP EA NOT_NAMED 1921-04-04 23:00:00 NR -15.8000 151.300 main 567 567 __________O___ -1 -15.8000 151.300 7 3 171
1921094S14151 1921 21 SP EA NOT_NAMED 1921-04-05 00:00:00 NR -15.8489 151.307 main 567 548 __________P___ -1 -15.8489 151.307 7 3 176
1921094S14151 1921 21 SP EA NOT_NAMED 1921-04-05 03:00:00 NR -15.9674 151.328 main 548 539 __________P___ -1 -15.9674 151.328 7 2 170
1921094S14151 1921 21 SP EA NOT_NAMED 1921-04-05 06:00:00 NR -16.0584 151.350 main 544 544 __________P___ -1 -16.0584 151.350 7 2 168
1921094S14151 1921 21 SP EA NOT_NAMED 1921-04-05 09:00:00 NR -16.1407 151.378 main 544 534 __________P___ -1 -16.1407 151.378 7 2 163
1921094S14151 1921 21 SP EA NOT_NAMED 1921-04-05 11:00:00 NR -16.2000 151.400 main 534 534 __________O___ -1 -16.2000 151.400 7 2 159
1921094S14151 1921 21 SP EA NOT_NAMED 1921-04-05 12:00:00 NR -16.2309 151.412 main 534 524 __________P___ -1 -16.2309 151.412 7 2 157
1921094S14151 1921 21 SP EA NOT_NAMED 1921-04-05 15:00:00 NR -16.3262 151.453 main 530 521 __________P___ -1 -16.3262 151.453 7 2 157
1921094S14151 1921 21 SP EA NOT_NAMED 1921-04-05 18:00:00 NR -16.4372 151.502 main 521 502 __________P___ -1 -16.4372 151.502 7 3 159
1921094S14151 1921 21 SP EA NOT_NAMED 1921-04-05 21:00:00 NR -16.5798 151.558 main 508 499 __________P___ -1 -16.5798 151.558 7 3 160
1921094S14151 1921 21 SP EA NOT_NAMED 1921-04-05 23:00:00 NR -16.7000 151.600 main 499 490 __________O___ -1 -16.7000 151.600 7 4 161
1921094S14151 1921 21 SP EA NOT_NAMED 1921-04-06 00:00:00 NR -16.7703 151.625 main 490 479 __________P___ -1 -16.7703 151.625 7 5 161
1921094S14151 1921 21 SP EA NOT_NAMED 1921-04-06 03:00:00 NR -17.0139 151.708 main 479 460 __________P___ -1 -17.0139 151.708 7 6 163
1921094S14151 1921 21 SP EA NOT_NAMED 1921-04-06 06:00:00 NR -17.2941 151.792 main 460 444 __________P___ -1 -17.2941 151.792 7 6 166
1921094S14151 1921 21 SP EA NOT_NAMED 1921-04-06 09:00:00 NR -17.5952 151.864 main 444 429 __________P___ -1 -17.5952 151.864 7 6 168
1921094S14151 1921 21 SP EA NOT_NAMED 1921-04-06 11:00:00 NR -17.8000 151.900 main 429 422 __________O___ -1 -17.8000 151.900 7 6 169
1921094S14151 1921 21 SP EA NOT_NAMED 1921-04-06 12:00:00 NR -17.8831 151.917 main 422 408 __________P___ -1 -17.8831 151.917 7 5 169
1921094S14151 1921 21 SP EA NOT_NAMED 1921-04-06 15:00:00 NR -18.1323 151.956 main 416 397 __________P___ -1 -18.1323 151.956 7 5 177
1921094S14151 1921 21 SP EA NOT_NAMED 1921-04-06 18:00:00 NR -18.4057 151.967 main 397 370 __________P___ -1 -18.4057 151.967 7 6 182
1921094S14151 1921 21 SP EA NOT_NAMED 1921-04-06 21:00:00 NR -18.7345 151.942 main 370 355 __________P___ -1 -18.7345 151.942 7 7 187
1921094S14151 1921 21 SP EA NOT_NAMED 1921-04-06 23:00:00 NR -19.0000 151.900 main 355 350 __________O___ -1 -19.0000 151.900 7 8 191
1921094S14151 1921 21 SP EA NOT_NAMED 1921-04-07 00:00:00 NR -19.1475 151.861 main 350 309 __________P___ -1 -19.1475 151.861 7 10 196
1921094S14151 1921 21 SP EA NOT_NAMED 1921-04-07 03:00:00 NR -19.6475 151.706 main 309 259 __________P___ -1 -19.6475 151.706 7 11 196
1921094S14151 1921 21 SP EA NOT_NAMED 1921-04-07 06:00:00 NR -20.2215 151.528 main 259 192 __________P___ -1 -20.2215 151.528 7 13 195
1921094S14151 1921 21 SP EA NOT_NAMED 1921-04-07 09:00:00 NR -20.8538 151.371 main 182 137 __________P___ -1 -20.8538 151.371 7 13 191
1921094S14151 1921 21 SP EA NOT_NAMED 1921-04-07 11:00:00 NR -21.3000 151.300 main 137 118 __________O___ -1 -21.3000 151.300 7 14 189
1921094S14151 1921 21 SP EA NOT_NAMED 1921-04-07 12:00:00 NR -21.5323 151.262 main 118 53 __________P___ -1 -21.5323 151.262 7 15 187
1921094S14151 1921 21 SP EA NOT_NAMED 1921-04-07 15:00:00 NR -22.2668 151.181 main 46 40 __________P___ -1 -22.2668 151.181 7 15 182
1921094S14151 1921 21 SP EA NOT_NAMED 1921-04-07 18:00:00 NR -23.0219 151.184 main 42 23 __________P___ -1 -23.0219 151.184 7 15 175
1921094S14151 1921 21 SP EA NOT_NAMED 1921-04-07 21:00:00 NR -23.7511 151.316 main 15 0 __________P___ -1 -23.7511 151.316 7 15 166
1921094S14151 1921 21 SP EA NOT_NAMED 1921-04-07 23:00:00 NR -24.2000 151.500 main 0 0 __________O___ -1 -24.2000 151.500 7 14 157
1921094S14151 1921 21 SP EA NOT_NAMED 1921-04-08 00:00:00 NR -24.4018 151.621 main 0 0 __________P___ -1 -24.4018 151.621 7 14 144
1921094S14151 1921 21 SP EA NOT_NAMED 1921-04-08 03:00:00 NR -24.9596 152.107 main 0 0 __________P___ -1 -24.9596 152.107 7 15 136
1921094S14151 1921 21 SP EA NOT_NAMED 1921-04-08 06:00:00 NR -25.4580 152.742 main 0 0 __________P___ -1 -25.4580 152.742 7 16 128
1921094S14151 1921 21 SP EA NOT_NAMED 1921-04-08 09:00:00 NR -25.9128 153.477 main 39 39 __________P___ -1 -25.9128 153.477 7 16 123
1921094S14151 1921 21 SP EA NOT_NAMED 1921-04-08 11:00:00 NR -26.2000 154.000 main 89 89 __________O___ -1 -26.2000 154.000 7 17 122
1921094S14151 1921 21 SP EA NOT_NAMED 1921-04-08 12:00:00 NR -26.3612 154.274 main 119 119 __________P___ -1 -26.3612 154.274 7 18 121
1921094S14151 1921 21 SP EA NOT_NAMED 1921-04-08 15:00:00 NR -26.8283 155.153 main 200 199 __________P___ -1 -26.8283 155.153 7 18 119
1921094S14151 1921 21 SP EA NOT_NAMED 1921-04-08 18:00:00 NR -27.2516 156.044 main 256 256 __________P___ -1 -27.2516 156.044 7 17 117
1921094S14151 1921 21 SP EA NOT_NAMED 1921-04-08 21:00:00 NR -27.6088 156.853 main 330 330 __________P___ -1 -27.6088 156.853 7 15 116
1921094S14151 1921 21 SP EA NOT_NAMED 1921-04-08 23:00:00 NR -27.8000 157.300 main 365 365 __________O___ -1 -27.8000 157.300 7 12 117
1921094S14151 1921 21 SP EA NOT_NAMED 1921-04-09 00:00:00 NR -27.8820 157.461 main 383 383 __________P___ -1 -27.8820 157.461 7 8 121
1921094S14151 1921 21 SP EA NOT_NAMED 1921-04-09 03:00:00 NR -28.0713 157.817 main 411 411 __________P___ -1 -28.0713 157.817 7 6 121
1921094S14151 1921 21 SP EA NOT_NAMED 1921-04-09 06:00:00 NR -28.1924 158.051 main 440 440 __________P___ -1 -28.1924 158.051 7 4 117
1921094S14151 1921 21 SP EA NOT_NAMED 1921-04-09 09:00:00 NR -28.2666 158.247 main 450 450 __________P___ -1 -28.2666 158.247 7 4 109
1921094S14151 1921 21 SP EA NOT_NAMED 1921-04-09 11:00:00 NR -28.3000 158.400 main 469 469 __________O___ -1 -28.3000 158.400 7 4 102
1921094S14151 1921 21 SP EA NOT_NAMED 1921-04-09 12:00:00 NR -28.3140 158.492 main 479 479 __________P___ -1 -28.3140 158.492 7 6 97
1921094S14151 1921 21 SP EA NOT_NAMED 1921-04-09 15:00:00 NR -28.3483 158.828 main 508 508 __________P___ -1 -28.3483 158.828 7 7 95
1921094S14151 1921 21 SP EA NOT_NAMED 1921-04-09 18:00:00 NR -28.3729 159.236 main 546 546 __________P___ -1 -28.3729 159.236 7 8 93
1921094S14151 1921 21 SP EA NOT_NAMED 1921-04-09 21:00:00 NR -28.3906 159.687 main 595 595 __________P___ -1 -28.3906 159.687 7 8 92
1921094S14151 1921 21 SP MM NOT_NAMED 1921-04-09 23:00:00 NR -28.4000 160.000 main 624 __________O___ -1 -28.4000 160.000 7 8 92

Digital Typhoon Data and Search

About IBTrACS Database

This database is a web-friendly format of International Best Track Archive for Climate Stewardship (IBTrACS), a global best track data archive curated by NOAA dating back to 1842.

Updated: 2021-10-08